METAR Data

Data at: 0607 UTC 22 Oct 2018

METAR for:EGLF (Farnborough Arpt, --, UK)
Text:EGLF 220550Z 33004KT CAVOK 05/03 Q1035
Temperature: 5.0°C ( 41°F)
Dewpoint: 3.0°C ( 37°F) [RH = 87%]
Pressure (altimeter):30.56 inches Hg (1035.0 mb)
Winds:from the NNW (330 degrees) at 5 MPH (4 knots; 2.1 m/s)
Visibility:6 or more sm (10+ km)
Ceiling:ceiling and visibility are OK
Clouds:unknown

TAF for:EGLF (Farnborough Arpt, --, UK)
Text:No data found

METAR for:EGUB (Benson(RAF), --, UK)
Text:EGUB 220550Z AUTO 35002KT 9999 // NCD 01/00 Q1035
Temperature: 1.0°C ( 34°F)
Dewpoint: 0.0°C ( 32°F) [RH = 93%]
Pressure (altimeter):30.56 inches Hg (1035.0 mb)
Winds:from the N (350 degrees) at 2 MPH (2 knots; 1.0 m/s)
Visibility:6 or more sm (10+ km)
Ceiling:at least 12,000 feet AGL
Clouds:sky clear below 12,000 feet AGL

TAF for:EGUB (Benson(RAF), --, UK)
Text:No data found

METAR for:EGVO (Odiham(RAF), --, UK)
Text:EGVO 220550Z 01004KT 9999 FEW030 05/04 Q1035 BLU
Temperature: 5.0°C ( 41°F)
Dewpoint: 4.0°C ( 39°F) [RH = 93%]
Pressure (altimeter):30.56 inches Hg (1035.0 mb)
Winds:from the N (10 degrees) at 5 MPH (4 knots; 2.1 m/s)
Visibility:6 or more sm (10+ km)
Ceiling:at least 12,000 feet AGL
Clouds: few clouds at 3000 feet AGL

TAF for:EGVO (Odiham(RAF), --, UK) issued at 0418 UTC 22 Oct 2018
Text:TAF EGVO 220418Z 2206/2218 36010KT 9999 FEW030
Forecast period:0600 to 1800 UTC 22 October 2018
Forecast type:FROM: standard forecast or significant change
Winds:from the N (360 degrees) at 12 MPH (10 knots; 5.1 m/s)
Visibility:6 or more sm (10+ km)
Ceiling:at least 12,000 feet AGL
Clouds: few clouds at 3000 feet AGL

METAR for:EGTK (Oxford Arpt, --, UK)
Text:EGTK 220550Z 34005KT CAVOK 05/03 Q1035
Temperature: 5.0°C ( 41°F)
Dewpoint: 3.0°C ( 37°F) [RH = 87%]
Pressure (altimeter):30.56 inches Hg (1035.0 mb)
Winds:from the NNW (340 degrees) at 6 MPH (5 knots; 2.6 m/s)
Visibility:6 or more sm (10+ km)
Ceiling:ceiling and visibility are OK
Clouds:unknown

TAF for:EGTK (Oxford Arpt, --, UK)
Text:No data found

METAR for:EGHH (Bournemouth Intl, --, UK)
Text:EGHH 220550Z 02008KT CAVOK 07/03 Q1035
Temperature: 7.0°C ( 45°F)
Dewpoint: 3.0°C ( 37°F) [RH = 76%]
Pressure (altimeter):30.56 inches Hg (1035.0 mb)
Winds:from the NNE (20 degrees) at 9 MPH (8 knots; 4.1 m/s)
Visibility:6 or more sm (10+ km)
Ceiling:ceiling and visibility are OK
Clouds:unknown

TAF for:EGHH (Bournemouth Intl, --, UK) issued at 0528 UTC 22 Oct 2018
Text:TAF EGHH 220528Z 2206/2215 01008KT CAVOK
Forecast period:0600 to 1500 UTC 22 October 2018
Forecast type:FROM: standard forecast or significant change
Winds:from the N (10 degrees) at 9 MPH (8 knots; 4.1 m/s)
Visibility:6 or more sm (10+ km)
Clouds:missing
Weather:NSW (no significant weather)

METAR for:
Text:No data found

TAF for:
Text:No data found